ADDS METAR Data INFO
IDs: Format: Raw Decoded Include TAF

Data at: 1924 UTC 19 Jul 2018

KSJS 191915Z AUTO 19003KT 10SM CLR 30/19 A3002 RMK AO2 T02960192
KSJS 191855Z AUTO 18005KT 10SM CLR 29/19 A3002 RMK AO2 T02940190
KSJS 191835Z AUTO 00000KT 10SM CLR 29/18 A3002 RMK AO2 T02900180
KSJS 191815Z AUTO 18004KT 10SM SCT060 29/19 A3003 RMK AO2 T02880187
KSJS 191755Z AUTO 19005KT 10SM CLR 29/18 A3004 RMK AO2 T02900184 10290 20175
KSJS 191735Z AUTO 20004KT 10SM CLR 28/18 A3004 RMK AO2 T02840182
KSJS 191715Z AUTO 21003KT 10SM CLR 28/18 A3004 RMK AO2 T02780179
KSJS 191655Z AUTO 00000KT 10SM CLR 27/18 A3005 RMK AO2 T02740175
KSJS 191635Z AUTO 18005KT 10SM CLR 28/18 A3005 RMK AO2 T02800179
KSJS 191615Z AUTO 06005KT 10SM CLR 27/18 A3005 RMK AO2 T02720179
KSJS 191555Z AUTO 00000KT 10SM CLR 27/17 A3006 RMK AO2 T02680173
KSJS 191535Z AUTO 06004KT 10SM CLR 26/17 A3006 RMK AO2 T02610172
KSJS 191515Z AUTO 00000KT 10SM CLR 26/17 A3007 RMK AO2 T02570174
KSJS 191455Z AUTO 00000KT 10SM CLR 24/17 A3006 RMK AO2 T02440165
KSJS 191435Z AUTO 07005KT 10SM CLR 24/17 A3006 RMK AO2 T02400165
KSJS 191415Z AUTO 05004KT 10SM CLR 23/16 A3007 RMK AO2 T02310160
KSJS 191355Z AUTO 11004KT 10SM CLR 22/16 A3007 RMK AO2 T02240155
KSJS 191335Z AUTO 11004KT 10SM CLR 22/16 A3007 RMK AO2 T02200161
KSJS 191315Z AUTO 07003KT 10SM CLR 21/16 A3007 RMK AO2 T02110160
KSJS 191255Z AUTO 00000KT 10SM CLR 21/16 A3007 RMK AO2 T02060160
KSJS 191235Z AUTO 00000KT 10SM CLR 20/16 A3007 RMK AO2 T01980157
KSJS 191215Z AUTO 10003KT 10SM CLR 19/16 A3007 RMK AO2 T01850161
KSJS 191155Z AUTO 00000KT 10SM CLR 18/16 A3007 RMK AO2 T01770163 10177 20135
KSJS 191135Z AUTO 00000KT 10SM CLR 16/16 A3006 RMK AO2 T01570157
KSJS 191115Z AUTO 00000KT 10SM CLR 15/15 A3007 RMK AO2 T01500150
KSJS 191055Z AUTO 00000KT 10SM CLR 14/14 A3006 RMK AO2 T01410141
KSJS 191035Z AUTO 00000KT 10SM CLR 14/14 A3006 RMK AO2 T01390139
KSJS 191015Z AUTO 00000KT 10SM CLR 14/14 A3006 RMK AO2 T01410141
KSJS 190955Z AUTO 00000KT 10SM CLR 14/14 A3006 RMK AO2 T01400140
KSJS 190935Z AUTO 06003KT 10SM CLR 14/14 A3005 RMK AO2 T01380138
KSJS 190915Z AUTO 00000KT 10SM CLR 14/14 A3006 RMK AO2 T01440144
KSJS 190855Z AUTO 00000KT 10SM CLR 15/15 A3005 RMK AO2 T01450145
KSJS 190835Z AUTO 00000KT 10SM CLR 14/14 A3006 RMK AO2 T01410141
KSJS 190815Z AUTO 00000KT 10SM CLR 15/15 A3006 RMK AO2 T01500150
KSJS 190755Z AUTO 00000KT 10SM CLR 15/15 A3006 RMK AO2 T01510151
KSJS 190735Z AUTO 00000KT 10SM CLR 16/16 A3006 RMK AO2 T01550155
KSJS 190715Z AUTO 00000KT 10SM CLR 16/15 A3007 RMK AO2 T01560154
KSJS 190655Z AUTO 00000KT 10SM CLR 16/16 A3007 RMK AO2 T01580156
KSJS 190635Z AUTO 00000KT 10SM CLR 17/15 A3007 RMK AO2 T01730154
KSJS 190615Z AUTO 00000KT 10SM CLR 16/15 A3007 RMK AO2 T01630152
KSJS 190555Z AUTO 00000KT 10SM CLR 17/15 A3007 RMK AO2 T01700146 10252 20170
KSJS 190535Z AUTO 10003KT 10SM CLR 18/15 A3007 RMK AO2 T01780145
KSJS 190515Z AUTO 00000KT 10SM CLR 18/14 A3006 RMK AO2 T01790140
KSJS 190455Z AUTO 00000KT 10SM CLR 18/14 A3006 RMK AO2 T01810143 402920163
KSJS 190435Z AUTO 00000KT 10SM CLR 19/14 A3006 RMK AO2 T01870143
KSJS 190415Z AUTO 08003KT 10SM CLR 19/15 A3006 RMK AO2 T01850154
KSJS 190355Z AUTO 00000KT 10SM CLR 18/15 A3006 RMK AO2 T01840147
KSJS 190335Z AUTO 00000KT 10SM CLR 19/15 A3006 RMK AO2 T01900148
KSJS 190315Z AUTO 07003KT 10SM CLR 19/15 A3006 RMK AO2 T01890147
KSJS 190255Z AUTO 00000KT 10SM CLR 20/15 A3006 RMK AO2 T01960147
KSJS 190235Z AUTO 08003KT 10SM CLR 20/15 A3006 RMK AO2 T01950145
KSJS 190215Z AUTO 07003KT 10SM CLR 20/14 A3005 RMK AO2 T02030142
KSJS 190155Z AUTO 08003KT 10SM CLR 22/14 A3005 RMK AO2 T02150141
KSJS 190135Z AUTO 07003KT 10SM CLR 22/14 A3004 RMK AO2 T02160141
KSJS 190115Z AUTO 05003KT 10SM CLR 22/14 A3004 RMK AO2 T02200143
KSJS 190055Z AUTO 06003KT 10SM CLR 23/14 A3003 RMK AO2 T02260142
KSJS 190035Z AUTO 06004KT 10SM CLR 23/15 A3003 RMK AO2 T02310145
KSJS 190015Z AUTO 06005KT 10SM CLR 25/15 A3003 RMK AO2 T02450145
KSJS 182355Z AUTO 06005KT 10SM SCT065 25/14 A3003 RMK AO2 T02520143 10292 20252
KSJS 182335Z AUTO 06004KT 10SM SCT065 26/15 A3002 RMK AO2 T02610146
KSJS 182315Z AUTO 06004KT 10SM OVC065 27/14 A3002 RMK AO2 T02690143
KSJS 182255Z AUTO 08004KT 10SM BKN065 28/14 A3002 RMK AO2 T02750140
KSJS 182235Z AUTO 07004KT 10SM CLR 28/15 A3002 RMK AO2 T02750145
KSJS 182215Z AUTO 09006KT 10SM SCT070 27/14 A3002 RMK AO2 T02680137
KSJS 182155Z AUTO 00000KT 10SM BKN060 28/14 A3003 RMK AO2 T02780138
KSJS 182135Z AUTO 10005KT 10SM BKN060 29/15 A3003 RMK AO2 T02860146
KSJS 182120Z AUTO 07006KT 10SM SCT060 28/14 A3003 RMK AO2 T02800144
KSJS 182055Z AUTO 00000KT 10SM SCT070 28/14 A3003 RMK AO2 T02820136
KSJS 182030Z AUTO 06007KT 10SM SCT070 28/14 A3004 RMK AO2 T02770144
KSJS 182015Z AUTO 00000KT 10SM CLR 29/14 A3004 RMK AO2 T02900140
KSJS 181950Z AUTO 04005KT 10SM CLR 29/15 A3005 RMK AO2 T02900148
KSJS 181935Z AUTO 06003KT 10SM CLR 29/14 A3006 RMK AO2 T02850138
KSJS 181915Z AUTO 06007KT 030V090 10SM SCT065 28/15 A3006 RMK AO2 T02820145
KSJS 181855Z AUTO 01004KT 10SM SCT055 28/15 A3006 RMK AO2 T02840147
KSJS 181840Z AUTO 00000KT 10SM SCT055 28/14 A3006 RMK AO2 T02830143
KSJS 181815Z AUTO 01005KT 10SM BKN065 28/15 A3007 RMK AO2 T02760149
KSJS 181755Z AUTO 03005KT 10SM SCT060 28/14 A3007 RMK AO2 T02760143 10283 20194
KSJS 181735Z AUTO 00000KT 10SM SCT060 28/15 A3008 RMK AO2 T02830154
KSJS 181715Z AUTO 00000KT 10SM SCT050 SCT060 27/15 A3008 RMK AO2 T02710148
KSJS 181655Z AUTO 36003KT 10SM SCT042 BKN050 BKN060 27/16 A3008 RMK AO2 T02710160
KSJS 181635Z AUTO 08003KT 10SM SCT040 BKN050 27/17 A3009 RMK AO2 T02700167
KSJS 181615Z AUTO 04005KT 10SM SCT055 27/17 A3009 RMK AO2 T02690174
KSJS 181555Z AUTO 09005KT 10SM CLR 26/17 A3009 RMK AO2 T02590170
KSJS 181535Z AUTO 08004KT 10SM CLR 26/17 A3009 RMK AO2 T02570173
KSJS 181515Z AUTO 09005KT 10SM CLR 25/18 A3010 RMK AO2 T02490176
KSJS 181455Z AUTO 12004KT 10SM CLR 25/17 A3010 RMK AO2 T02470174
KSJS 181435Z AUTO 05003KT 10SM CLR 24/18 A3010 RMK AO2 T02420184
KSJS 181415Z AUTO 00000KT 10SM CLR 24/18 A3009 RMK AO2 T02350180
KSJS 181355Z AUTO 09003KT 10SM CLR 23/19 A3009 RMK AO2 T02280185
KSJS 181335Z AUTO 00000KT 10SM CLR 22/18 A3009 RMK AO2 T02220184
KSJS 181315Z AUTO 00000KT 10SM SCT060 22/18 A3009 RMK AO2 T02150182
KSJS 181255Z AUTO 07003KT 10SM SCT060 21/18 A3008 RMK AO2 T02140183
KSJS 181235Z AUTO 00000KT 10SM CLR 21/18 A3008 RMK AO2 T02050177
KSJS 181215Z AUTO 00000KT 10SM CLR 20/18 A3007 RMK AO2 T02000181
KSJS 181155Z AUTO 00000KT 10SM CLR 19/19 A3006 RMK AO2 T01930186 10195 20163
KSJS 181135Z AUTO 00000KT 10SM CLR 18/18 A3006 RMK AO2 T01810181
KSJS 181115Z AUTO 00000KT 10SM CLR 17/17 A3006 RMK AO2 T01740174
KSJS 181055Z AUTO 00000KT 10SM SCT002 17/17 A3005 RMK AO2 T01700170
KSJS 181035Z AUTO 00000KT 1/2SM FG SCT002 16/16 A3004 RMK AO2 T01640164
KSJS 181015Z AUTO 00000KT 10SM SCT002 17/17 A3004 RMK AO2 T01720172
KSJS 180955Z AUTO 00000KT 1 1/4SM BR SCT002 17/17 A3004 RMK AO2 T01720172
KSJS 180935Z AUTO 00000KT 5SM BR CLR 17/17 A3004 RMK AO2 T01700170
KSJS 180915Z AUTO 00000KT 5SM BR CLR 18/18 A3004 RMK AO2 T01750175
KSJS 180855Z AUTO 00000KT 10SM CLR 18/18 A3003 RMK AO2 T01750175
KSJS 180835Z AUTO 00000KT 10SM CLR 18/18 A3003 RMK AO2 T01750175
KSJS 180815Z AUTO 00000KT 10SM CLR 18/18 A3004 RMK AO2 T01760176
KSJS 180755Z AUTO 00000KT 10SM CLR 18/18 A3004 RMK AO2 T01770177
KSJS 180735Z AUTO 00000KT 10SM CLR 19/19 A3004 RMK AO2 T01850185